createdAt,value
2023-01-22T00:00:00.320Z,986.2
2023-01-22T00:01:00.290Z,986.2
2023-01-22T00:02:00.276Z,986.2
2023-01-22T00:03:00.299Z,986.2
2023-01-22T00:04:00.349Z,986.2
2023-01-22T00:05:00.307Z,986
2023-01-22T00:06:00.279Z,986.2
2023-01-22T00:07:00.279Z,986.2
2023-01-22T00:08:00.303Z,986.2
2023-01-22T00:09:00.280Z,986.2
2023-01-22T00:10:00.438Z,986
2023-01-22T00:11:00.280Z,986
2023-01-22T00:12:00.278Z,986.2
2023-01-22T00:13:00.310Z,986
2023-01-22T00:14:00.307Z,986.2
2023-01-22T00:15:00.301Z,985.8
2023-01-22T00:16:00.534Z,986
2023-01-22T00:17:00.297Z,986
2023-01-22T00:18:00.308Z,986
2023-01-22T00:19:00.289Z,986
2023-01-22T00:20:00.317Z,986
2023-01-22T00:21:00.337Z,986
2023-01-22T00:22:00.294Z,986
2023-01-22T00:23:00.320Z,985.8
2023-01-22T00:24:00.305Z,986
2023-01-22T00:25:00.312Z,986
2023-01-22T00:26:00.308Z,986
2023-01-22T00:27:00.319Z,986
2023-01-22T00:28:00.322Z,986
2023-01-22T00:29:00.324Z,986
2023-01-22T00:30:00.330Z,986
2023-01-22T00:31:00.517Z,986.2
2023-01-22T00:32:00.492Z,986.2
2023-01-22T00:33:00.325Z,986.2
2023-01-22T00:34:00.339Z,986
2023-01-22T00:35:00.324Z,986
2023-01-22T00:36:00.316Z,986.2
2023-01-22T00:37:00.331Z,986
2023-01-22T00:38:00.339Z,986.2
2023-01-22T00:39:00.326Z,986.2
2023-01-22T00:40:00.329Z,986.2
2023-01-22T00:41:00.337Z,986
2023-01-22T00:42:00.343Z,986.2
2023-01-22T00:43:00.341Z,986.2
2023-01-22T00:44:00.341Z,986
2023-01-22T00:45:00.323Z,986
2023-01-22T00:46:00.327Z,986
2023-01-22T00:47:00.347Z,986
2023-01-22T00:48:00.355Z,986.2
2023-01-22T00:49:00.325Z,986
2023-01-22T00:50:00.333Z,986
2023-01-22T00:51:00.391Z,986
2023-01-22T00:52:00.346Z,986
2023-01-22T00:53:00.344Z,986
2023-01-22T00:54:00.324Z,986
2023-01-22T00:55:00.338Z,986
2023-01-22T00:56:00.329Z,985.8
2023-01-22T00:57:00.323Z,985.8
2023-01-22T00:58:00.404Z,985.8
2023-01-22T00:59:00.343Z,985.8
2023-01-22T01:00:00.329Z,985.8
2023-01-22T01:01:00.401Z,985.8
2023-01-22T01:02:00.362Z,985.8
2023-01-22T01:03:00.346Z,985.8
2023-01-22T01:04:00.335Z,985.8
2023-01-22T01:05:00.369Z,985.8
2023-01-22T01:06:00.352Z,985.8
2023-01-22T01:07:00.349Z,985.8
2023-01-22T01:08:00.358Z,985.8
2023-01-22T01:09:00.350Z,985.8
2023-01-22T01:10:00.343Z,985.8
2023-01-22T01:11:00.394Z,985.8
2023-01-22T01:12:00.352Z,985.8
2023-01-22T01:13:00.365Z,985.8
2023-01-22T01:14:00.351Z,985.8
2023-01-22T01:15:00.359Z,985.8
2023-01-22T01:16:00.391Z,985.8
2023-01-22T01:17:00.371Z,985.8
2023-01-22T01:18:00.350Z,985.8
2023-01-22T01:19:00.362Z,985.8
2023-01-22T01:20:00.360Z,985.8
2023-01-22T01:21:00.432Z,985.6
2023-01-22T01:22:00.368Z,985.6
2023-01-22T01:23:00.377Z,985.6
2023-01-22T01:24:00.379Z,985.4
2023-01-22T01:25:00.359Z,985.4
2023-01-22T01:26:00.378Z,985.4
2023-01-22T01:27:00.377Z,985.6
2023-01-22T01:28:00.419Z,985.6
2023-01-22T01:29:00.364Z,985.6
2023-01-22T01:30:00.384Z,985.6
2023-01-22T01:31:00.565Z,985.6
2023-01-22T01:32:00.455Z,985.6
2023-01-22T01:33:00.385Z,985.6
2023-01-22T01:34:00.393Z,985.6
2023-01-22T01:35:00.387Z,985.4
2023-01-22T01:36:00.382Z,985.6
2023-01-22T01:37:00.370Z,985.4
2023-01-22T01:38:00.370Z,985.4
2023-01-22T01:39:01.173Z,985.4
2023-01-22T01:40:00.370Z,985.4
2023-01-22T01:41:00.400Z,985.4
2023-01-22T01:42:00.379Z,985.4
2023-01-22T01:43:00.409Z,985.4
2023-01-22T01:44:00.377Z,985.4
2023-01-22T01:45:00.383Z,985.4
2023-01-22T01:46:00.428Z,985.4
2023-01-22T01:47:00.431Z,985.4
2023-01-22T01:48:00.381Z,985.4
2023-01-22T01:49:00.383Z,985.4
2023-01-22T01:50:00.391Z,985.4
2023-01-22T01:51:00.450Z,985.4
2023-01-22T01:52:00.409Z,985.1
2023-01-22T01:53:00.384Z,985.1
2023-01-22T01:54:00.391Z,985.1
2023-01-22T01:55:00.402Z,985.1
2023-01-22T01:56:00.414Z,985.1
2023-01-22T01:57:00.420Z,985.1
2023-01-22T01:58:00.409Z,985.4
2023-01-22T01:59:00.404Z,985.4
2023-01-22T02:00:00.401Z,985.1
2023-01-22T02:01:00.485Z,985.4
2023-01-22T02:02:00.503Z,985.4
2023-01-22T02:03:00.397Z,985.4
2023-01-22T02:04:00.424Z,985.1
2023-01-22T02:05:00.403Z,985.1
2023-01-22T02:06:00.436Z,985.4
2023-01-22T02:07:00.420Z,985.4
2023-01-22T02:08:00.404Z,985.4
2023-01-22T02:09:00.430Z,985.4
2023-01-22T02:10:00.420Z,985.4
2023-01-22T02:11:00.424Z,985.4
2023-01-22T02:12:00.406Z,985.4
2023-01-22T02:13:00.430Z,985.4
2023-01-22T02:14:00.438Z,985.4
2023-01-22T02:15:00.428Z,985.4
2023-01-22T02:16:00.521Z,985.4
2023-01-22T02:17:00.430Z,985.4
2023-01-22T02:18:00.413Z,985.4
2023-01-22T02:19:00.435Z,985.4
2023-01-22T02:20:00.429Z,985.4
2023-01-22T02:21:00.441Z,985.4
2023-01-22T02:22:00.417Z,985.4
2023-01-22T02:23:00.427Z,985.4
2023-01-22T02:24:00.420Z,985.4
2023-01-22T02:25:00.443Z,985.4
2023-01-22T02:26:00.444Z,985.4
2023-01-22T02:27:00.428Z,985.4
2023-01-22T02:28:00.448Z,985.4
2023-01-22T02:29:00.420Z,985.4
2023-01-22T02:30:00.445Z,985.4
2023-01-22T02:31:00.498Z,985.4
2023-01-22T02:32:00.422Z,985.4
2023-01-22T02:33:00.445Z,985.4
2023-01-22T02:34:00.429Z,985.1
2023-01-22T02:35:00.452Z,985.1
2023-01-22T02:36:00.452Z,985.1
2023-01-22T02:37:00.436Z,985.1
2023-01-22T02:38:00.443Z,985.1
2023-01-22T02:39:00.449Z,985.1
2023-01-22T02:40:00.455Z,985.4
2023-01-22T02:41:00.449Z,985.1
2023-01-22T02:42:00.452Z,985.4
2023-01-22T02:43:00.485Z,985.1
2023-01-22T02:44:00.442Z,985.1
2023-01-22T02:45:00.468Z,985.1
2023-01-22T02:46:00.499Z,985.1
2023-01-22T02:47:00.439Z,985.4
2023-01-22T02:48:00.452Z,985.4
2023-01-22T02:49:00.446Z,985.1
2023-01-22T02:50:00.499Z,985.1
2023-01-22T02:51:00.490Z,985.4
2023-01-22T02:52:00.449Z,985.4
2023-01-22T02:53:00.469Z,985.4
2023-01-22T02:54:00.464Z,985.4
2023-01-22T02:55:00.494Z,985.4
2023-01-22T02:56:00.461Z,985.4
2023-01-22T02:57:00.461Z,985.4
2023-01-22T02:58:00.485Z,985.4
2023-01-22T02:59:00.452Z,985.4
2023-01-22T03:00:01.545Z,985.4
2023-01-22T03:01:01.555Z,985.4
2023-01-22T03:02:01.534Z,985.4
2023-01-22T03:03:01.487Z,985.6
2023-01-22T03:04:01.518Z,985.4
2023-01-22T03:05:01.516Z,985.6
2023-01-22T03:06:01.531Z,985.6
2023-01-22T03:07:01.497Z,985.6
2023-01-22T03:08:01.508Z,985.6
2023-01-22T03:09:01.567Z,985.6
2023-01-22T03:10:01.556Z,985.8
2023-01-22T03:11:01.499Z,985.6
2023-01-22T03:12:01.497Z,985.6
2023-01-22T03:13:01.519Z,985.6
2023-01-22T03:14:01.495Z,985.6
2023-01-22T03:15:01.546Z,985.6
2023-01-22T03:16:01.494Z,985.6
2023-01-22T03:17:01.508Z,985.6
2023-01-22T03:18:01.518Z,985.4
2023-01-22T03:19:01.508Z,985.4
2023-01-22T03:20:01.605Z,985.4
2023-01-22T03:21:01.519Z,985.4
2023-01-22T03:22:01.505Z,985.4
2023-01-22T03:23:01.558Z,985.6
2023-01-22T03:24:01.507Z,985.6
2023-01-22T03:25:01.624Z,985.6
2023-01-22T03:26:01.508Z,985.6
2023-01-22T03:27:01.555Z,985.8
2023-01-22T03:28:00.188Z,985.6
2023-01-22T03:29:00.204Z,985.8
2023-01-22T03:30:00.191Z,985.4
2023-01-22T03:31:00.244Z,985.8
2023-01-22T03:32:00.253Z,985.8
2023-01-22T03:33:00.195Z,985.6
2023-01-22T03:34:00.207Z,985.8
2023-01-22T03:35:00.201Z,985.8
2023-01-22T03:36:00.218Z,985.6
2023-01-22T03:37:00.249Z,985.6
2023-01-22T03:38:00.199Z,985.8
2023-01-22T03:39:00.224Z,985.8
2023-01-22T03:40:00.211Z,985.8
2023-01-22T03:41:00.220Z,985.8
2023-01-22T03:42:00.294Z,985.6
2023-01-22T03:43:00.204Z,985.8
2023-01-22T03:44:00.236Z,985.8
2023-01-22T03:45:00.292Z,985.8
2023-01-22T03:46:00.258Z,985.8
2023-01-22T03:47:00.209Z,985.8
2023-01-22T03:48:00.264Z,985.8
2023-01-22T03:49:00.209Z,985.8
2023-01-22T03:50:00.304Z,985.8
2023-01-22T03:51:00.258Z,985.8
2023-01-22T03:52:00.293Z,985.8
2023-01-22T03:53:00.269Z,985.8
2023-01-22T03:54:00.307Z,985.8
2023-01-22T03:55:00.320Z,985.8
2023-01-22T03:56:00.331Z,985.8
2023-01-22T03:57:00.328Z,985.8
2023-01-22T03:58:00.310Z,985.6
2023-01-22T03:59:00.307Z,985.6
2023-01-22T04:00:00.358Z,985.6
2023-01-22T04:01:00.335Z,985.8
2023-01-22T04:02:00.373Z,985.6
2023-01-22T04:03:00.291Z,985.8
2023-01-22T04:04:00.318Z,985.8
2023-01-22T04:05:00.336Z,985.8
2023-01-22T04:06:00.315Z,985.8
2023-01-22T04:07:00.336Z,985.8
2023-01-22T04:08:00.237Z,985.8
2023-01-22T04:09:00.356Z,985.8
2023-01-22T04:10:00.252Z,985.8
2023-01-22T04:11:00.235Z,985.8
2023-01-22T04:12:00.275Z,985.8
2023-01-22T04:13:00.248Z,985.8
2023-01-22T04:14:00.238Z,985.8
2023-01-22T04:15:00.276Z,985.8
2023-01-22T04:16:00.233Z,985.8
2023-01-22T04:17:00.250Z,985.8
2023-01-22T04:18:00.260Z,985.8
2023-01-22T04:19:00.269Z,985.8
2023-01-22T04:20:00.242Z,985.8
2023-01-22T04:21:00.257Z,985.8
2023-01-22T04:22:00.252Z,985.8
2023-01-22T04:23:00.254Z,985.8
2023-01-22T04:24:00.248Z,985.8
2023-01-22T04:25:00.260Z,985.8
2023-01-22T04:26:00.241Z,985.8
2023-01-22T04:27:00.246Z,985.8
2023-01-22T04:28:00.268Z,985.8
2023-01-22T04:29:00.246Z,985.8
2023-01-22T04:30:00.267Z,985.8
2023-01-22T04:31:00.326Z,985.8
2023-01-22T04:32:00.262Z,985.8
2023-01-22T04:33:00.274Z,985.8
2023-01-22T04:34:00.271Z,985.8
2023-01-22T04:35:00.297Z,985.8
2023-01-22T04:36:00.272Z,985.8
2023-01-22T04:37:00.270Z,985.8
2023-01-22T04:38:00.271Z,986
2023-01-22T04:39:00.259Z,986
2023-01-22T04:40:00.280Z,986
2023-01-22T04:41:00.275Z,986
2023-01-22T04:42:00.261Z,986.2
2023-01-22T04:43:00.277Z,986
2023-01-22T04:44:00.279Z,986
2023-01-22T04:45:00.260Z,986.2
2023-01-22T04:46:00.314Z,986.2
2023-01-22T04:47:00.263Z,986.2
2023-01-22T04:48:00.287Z,985.8
2023-01-22T04:49:00.277Z,986.2
2023-01-22T04:50:00.286Z,986
2023-01-22T04:51:00.364Z,986.2
2023-01-22T04:52:00.289Z,986
2023-01-22T04:53:00.317Z,986
2023-01-22T04:54:00.281Z,986
2023-01-22T04:55:00.288Z,986
2023-01-22T04:56:00.275Z,986
2023-01-22T04:57:00.279Z,986
2023-01-22T04:58:00.309Z,986
2023-01-22T04:59:00.299Z,986
2023-01-22T05:00:00.322Z,986
2023-01-22T05:01:00.363Z,986
2023-01-22T05:02:00.280Z,985.8
2023-01-22T05:03:00.302Z,986
2023-01-22T05:04:00.283Z,986
2023-01-22T05:05:00.300Z,985.8
2023-01-22T05:06:00.299Z,986
2023-01-22T05:07:00.285Z,986
2023-01-22T05:08:00.312Z,986
2023-01-22T05:09:00.289Z,986
2023-01-22T05:10:00.308Z,986
2023-01-22T05:11:00.291Z,986
2023-01-22T05:12:00.288Z,986
2023-01-22T05:13:00.306Z,986
2023-01-22T05:14:00.290Z,986
2023-01-22T05:15:00.315Z,986
2023-01-22T05:16:00.343Z,986
2023-01-22T05:17:00.296Z,986
2023-01-22T05:18:00.338Z,986.2
2023-01-22T05:19:00.311Z,986.2
2023-01-22T05:20:00.317Z,986.2
2023-01-22T05:21:00.317Z,986.2
2023-01-22T05:22:00.310Z,986
2023-01-22T05:23:00.309Z,986
2023-01-22T05:24:00.325Z,986
2023-01-22T05:25:00.321Z,986
2023-01-22T05:26:00.303Z,986
2023-01-22T05:27:00.305Z,986
2023-01-22T05:28:00.307Z,986.2
2023-01-22T05:29:00.328Z,986.2
2023-01-22T05:30:00.328Z,986.2
2023-01-22T05:31:00.412Z,986
2023-01-22T05:32:00.329Z,986.2
2023-01-22T05:33:00.309Z,986.2
2023-01-22T05:34:00.349Z,986.2
2023-01-22T05:35:00.331Z,986.2
2023-01-22T05:36:00.337Z,986.2
2023-01-22T05:37:00.326Z,986.2
2023-01-22T05:38:00.326Z,986.2
2023-01-22T05:39:00.336Z,986.2
2023-01-22T05:40:00.350Z,986.2
2023-01-22T05:41:00.326Z,986.2
2023-01-22T05:42:00.324Z,986.2
2023-01-22T05:43:00.330Z,986.2
2023-01-22T05:44:00.339Z,986.2
2023-01-22T05:45:00.343Z,986.2
2023-01-22T05:46:00.344Z,986.2
2023-01-22T05:47:00.324Z,986.2
2023-01-22T05:48:00.324Z,986.2
2023-01-22T05:49:00.342Z,986.2
2023-01-22T05:50:00.328Z,986.2
2023-01-22T05:51:00.379Z,986.2
2023-01-22T05:52:00.329Z,986.2
2023-01-22T05:53:00.330Z,986.2
2023-01-22T05:54:00.349Z,986.2
2023-01-22T05:55:00.335Z,986.2
2023-01-22T05:56:00.351Z,986.2
2023-01-22T05:57:00.336Z,986.2
2023-01-22T05:58:00.343Z,986.2
2023-01-22T05:59:00.352Z,986.2
2023-01-22T06:00:00.364Z,986.2
2023-01-22T06:01:00.356Z,986.2
2023-01-22T06:02:00.363Z,986.2
2023-01-22T06:03:00.346Z,986.2
2023-01-22T06:04:00.363Z,986.2
2023-01-22T06:05:00.439Z,986.2
2023-01-22T06:06:00.363Z,986.2
2023-01-22T06:07:00.364Z,986.2
2023-01-22T06:08:00.354Z,986.2
2023-01-22T06:09:00.357Z,986.2
2023-01-22T06:10:00.352Z,986.2
2023-01-22T06:11:00.374Z,986.2
2023-01-22T06:12:00.355Z,986.2
2023-01-22T06:13:00.367Z,986.2
2023-01-22T06:14:00.381Z,986.2
2023-01-22T06:15:00.372Z,986.2
2023-01-22T06:16:00.440Z,986.2
2023-01-22T06:17:00.373Z,986.2
2023-01-22T06:18:00.385Z,986.2
2023-01-22T06:19:00.365Z,986.2
2023-01-22T06:20:00.359Z,986.2
2023-01-22T06:21:00.380Z,986.2
2023-01-22T06:22:00.390Z,986.2
2023-01-22T06:23:00.366Z,986.2
2023-01-22T06:24:00.369Z,986.2
2023-01-22T06:25:00.385Z,986.2
2023-01-22T06:26:00.383Z,986.2
2023-01-22T06:27:00.381Z,986.2
2023-01-22T06:28:00.368Z,986.2
2023-01-22T06:29:00.364Z,986.2
2023-01-22T06:30:00.397Z,986
2023-01-22T06:31:00.441Z,986.2
2023-01-22T06:32:00.398Z,986.2
2023-01-22T06:33:00.381Z,986
2023-01-22T06:34:00.385Z,986.2
2023-01-22T06:35:00.378Z,986.2
2023-01-22T06:36:00.416Z,986.2
2023-01-22T06:37:00.388Z,986.2
2023-01-22T06:38:00.393Z,986.2
2023-01-22T06:39:00.391Z,986.2
2023-01-22T06:40:00.381Z,986.2
2023-01-22T06:41:00.377Z,986.2
2023-01-22T06:42:00.393Z,986.2
2023-01-22T06:43:00.382Z,986.2
2023-01-22T06:44:00.408Z,986.2
2023-01-22T06:45:00.413Z,986.2
2023-01-22T06:46:00.430Z,986.2
2023-01-22T06:47:00.402Z,986
2023-01-22T06:48:00.387Z,986.2
2023-01-22T06:49:00.424Z,986.2
2023-01-22T06:50:00.408Z,986.2
2023-01-22T06:51:00.488Z,986
2023-01-22T06:52:00.418Z,986.2
2023-01-22T06:53:00.399Z,986.2
2023-01-22T06:54:00.408Z,986
2023-01-22T06:55:00.404Z,986.2
2023-01-22T06:56:00.401Z,986.2
2023-01-22T06:57:00.416Z,986
2023-01-22T06:58:00.408Z,986.2
2023-01-22T06:59:00.422Z,986
2023-01-22T07:00:00.414Z,986.2
2023-01-22T07:01:00.419Z,986.2
2023-01-22T07:02:00.496Z,986
2023-01-22T07:03:00.425Z,986.2
2023-01-22T07:04:00.511Z,986.2
2023-01-22T07:05:00.422Z,986.2
2023-01-22T07:06:00.424Z,986.2
2023-01-22T07:07:00.435Z,986.2
2023-01-22T07:08:00.411Z,986.2
2023-01-22T07:09:00.414Z,986.2
2023-01-22T07:10:00.413Z,986.2
2023-01-22T07:11:00.441Z,986.2
2023-01-22T07:12:00.431Z,986.2
2023-01-22T07:13:00.425Z,986.2
2023-01-22T07:14:00.436Z,986.2
2023-01-22T07:15:00.415Z,986.2
2023-01-22T07:16:00.438Z,986.2
2023-01-22T07:17:00.432Z,986
2023-01-22T07:18:00.419Z,986
2023-01-22T07:19:00.418Z,986.2
2023-01-22T07:20:00.558Z,986.2
2023-01-22T07:21:00.485Z,986.2
2023-01-22T07:22:00.484Z,986.2
2023-01-22T07:23:00.497Z,986
2023-01-22T07:24:00.478Z,986.2
2023-01-22T07:25:00.581Z,986.2
2023-01-22T07:26:00.519Z,986
2023-01-22T07:27:00.552Z,986
2023-01-22T07:28:00.545Z,986
2023-01-22T07:29:00.515Z,986
2023-01-22T07:30:00.504Z,986
2023-01-22T07:31:00.725Z,986
2023-01-22T07:32:00.523Z,986
2023-01-22T07:33:00.528Z,986.2
2023-01-22T07:34:00.486Z,986
2023-01-22T07:35:00.595Z,986
2023-01-22T07:36:00.548Z,986
2023-01-22T07:37:00.491Z,986.2
2023-01-22T07:38:00.503Z,986.2
2023-01-22T07:39:00.464Z,986.2
2023-01-22T07:40:00.530Z,986.2
2023-01-22T07:41:00.476Z,986.2
2023-01-22T07:42:00.454Z,986.2
2023-01-22T07:43:00.498Z,986
2023-01-22T07:44:00.482Z,986
2023-01-22T07:45:00.462Z,986
2023-01-22T07:46:00.446Z,986
2023-01-22T07:47:00.446Z,986.2
2023-01-22T07:48:00.451Z,986
2023-01-22T07:49:00.479Z,986
2023-01-22T07:50:00.489Z,985.8
2023-01-22T07:51:00.505Z,985.8
2023-01-22T07:52:00.474Z,985.8
2023-01-22T07:53:00.577Z,985.8
2023-01-22T07:54:00.453Z,985.8
2023-01-22T07:55:00.458Z,985.8
2023-01-22T07:56:00.462Z,985.8
2023-01-22T07:57:00.474Z,985.6
2023-01-22T07:58:00.491Z,985.8
2023-01-22T07:59:00.463Z,985.8
2023-01-22T08:00:00.506Z,985.6
2023-01-22T08:01:00.522Z,985.6
2023-01-22T08:02:03.193Z,985.6
2023-01-22T08:03:00.480Z,985.6
2023-01-22T08:04:00.480Z,985.6
2023-01-22T08:05:00.488Z,985.6
2023-01-22T08:06:00.469Z,985.4
2023-01-22T08:07:00.462Z,985.4
2023-01-22T08:08:00.493Z,985.4
2023-01-22T08:09:00.478Z,985.4
2023-01-22T08:10:00.473Z,985.4
2023-01-22T08:11:00.502Z,985.4
2023-01-22T08:12:00.490Z,985.1
2023-01-22T08:13:00.515Z,985.4
2023-01-22T08:14:00.484Z,985.1
2023-01-22T08:15:00.480Z,985.1
2023-01-22T08:16:00.632Z,985.1
2023-01-22T08:17:00.480Z,984.9
2023-01-22T08:18:00.477Z,984.9
2023-01-22T08:19:00.512Z,985.1
2023-01-22T08:20:00.517Z,984.9
2023-01-22T08:21:00.507Z,984.9
2023-01-22T08:22:00.491Z,985.1
2023-01-22T08:23:00.497Z,985.1
2023-01-22T08:24:00.496Z,985.1
2023-01-22T08:25:00.503Z,984.9
2023-01-22T08:26:00.521Z,984.9
2023-01-22T08:27:00.509Z,984.9
2023-01-22T08:28:00.488Z,984.9
2023-01-22T08:29:03.458Z,984.7
2023-01-22T08:30:00.488Z,984.7
2023-01-22T08:31:00.565Z,984.5
2023-01-22T08:32:00.663Z,984.5
2023-01-22T08:33:00.498Z,984.7
2023-01-22T08:34:00.547Z,984.9
2023-01-22T08:35:00.518Z,984.7
2023-01-22T08:36:00.528Z,984.9
2023-01-22T08:37:00.507Z,984.9
2023-01-22T08:38:00.527Z,984.9
2023-01-22T08:39:00.499Z,984.7
2023-01-22T08:40:00.501Z,984.9
2023-01-22T08:41:00.522Z,984.7
2023-01-22T08:42:00.517Z,984.5
2023-01-22T08:43:00.501Z,984.3
2023-01-22T08:44:00.527Z,984
2023-01-22T08:45:00.509Z,984.3
2023-01-22T08:46:00.619Z,984.3
2023-01-22T08:47:00.525Z,984.3
2023-01-22T08:48:00.507Z,984.5
2023-01-22T08:49:00.506Z,984.3
2023-01-22T08:50:00.526Z,984
2023-01-22T08:51:00.564Z,984
2023-01-22T08:52:00.522Z,984
2023-01-22T08:53:00.532Z,983.8
2023-01-22T08:54:00.562Z,983.6
2023-01-22T08:55:00.523Z,983.6
2023-01-22T08:56:00.537Z,983.4
2023-01-22T08:57:00.525Z,983.4
2023-01-22T08:58:00.526Z,983.2
2023-01-22T08:59:00.520Z,983.2
2023-01-22T09:00:01.495Z,983.2
2023-01-22T09:01:00.604Z,982.7
2023-01-22T09:02:00.582Z,982.7
2023-01-22T09:03:00.549Z,982.3
2023-01-22T09:04:00.521Z,982.3
2023-01-22T09:05:00.553Z,982.1
2023-01-22T09:06:00.542Z,982.1
2023-01-22T09:07:00.552Z,982.1
2023-01-22T09:08:00.572Z,981.7
2023-01-22T09:09:00.530Z,981.4
2023-01-22T09:10:00.531Z,981.9
2023-01-22T09:11:00.576Z,981.7
2023-01-22T09:12:00.539Z,981.4
2023-01-22T09:13:00.568Z,981
2023-01-22T09:14:00.559Z,980.8
2023-01-22T09:15:00.570Z,980.8
2023-01-22T09:16:00.558Z,981
2023-01-22T09:17:00.575Z,981
2023-01-22T09:18:00.547Z,980.6
2023-01-22T09:19:00.546Z,980.6
2023-01-22T09:20:00.594Z,980.6
2023-01-22T09:21:00.565Z,980.6
2023-01-22T09:22:00.560Z,980.4
2023-01-22T09:23:00.557Z,980.1
2023-01-22T09:24:00.547Z,979.9
2023-01-22T09:25:00.574Z,980.6
2023-01-22T09:26:00.564Z,980.1
2023-01-22T09:27:00.554Z,979.7
2023-01-22T09:28:00.524Z,979.7
2023-01-22T09:29:00.486Z,979.9
2023-01-22T09:30:00.485Z,979.9
2023-01-22T09:31:00.517Z,979.7
2023-01-22T09:32:00.460Z,979.7
2023-01-22T09:33:00.386Z,979.3
2023-01-22T09:34:00.349Z,979.7
2023-01-22T09:35:00.341Z,979.7
2023-01-22T09:36:00.306Z,979.5
2023-01-22T09:37:00.255Z,979
2023-01-22T09:38:00.229Z,978.8
2023-01-22T09:39:00.197Z,978.8
2023-01-22T09:40:00.181Z,978.6
2023-01-22T09:41:00.174Z,978.4
2023-01-22T09:42:00.150Z,978.4
2023-01-22T09:43:00.157Z,978.2
2023-01-22T09:44:00.141Z,978.6
2023-01-22T09:45:00.142Z,978.2
2023-01-22T09:46:00.260Z,978.2
2023-01-22T09:47:00.211Z,978.6
2023-01-22T09:48:00.145Z,978.4
2023-01-22T09:49:00.146Z,978
2023-01-22T09:50:00.170Z,978
2023-01-22T09:51:00.220Z,978
2023-01-22T09:52:00.151Z,978.2
2023-01-22T09:53:00.149Z,978.2
2023-01-22T09:54:00.168Z,978
2023-01-22T09:55:00.179Z,978.2
2023-01-22T09:56:00.175Z,978.4
2023-01-22T09:57:00.160Z,977.7
2023-01-22T09:58:00.164Z,978
2023-01-22T09:59:00.166Z,978
2023-01-22T10:00:00.203Z,977.7
2023-01-22T10:01:00.627Z,977.5
2023-01-22T10:02:00.236Z,977.5
2023-01-22T10:03:00.160Z,977.3
2023-01-22T10:04:00.202Z,977.3
2023-01-22T10:05:00.180Z,977.5
2023-01-22T10:06:00.218Z,977.1
2023-01-22T10:07:00.173Z,976.7
2023-01-22T10:08:00.168Z,977.1
2023-01-22T10:09:00.165Z,978
2023-01-22T10:10:00.227Z,977.7
2023-01-22T10:11:00.184Z,977.7
2023-01-22T10:12:00.225Z,978.2
2023-01-22T10:13:00.165Z,978
2023-01-22T10:14:00.179Z,978
2023-01-22T10:15:00.190Z,978.2
2023-01-22T10:16:00.167Z,978
2023-01-22T10:17:00.226Z,978
2023-01-22T10:18:00.171Z,977.7
2023-01-22T10:19:00.190Z,976.7
2023-01-22T10:20:00.223Z,976
2023-01-22T10:21:00.189Z,976.2
2023-01-22T10:22:00.193Z,976
2023-01-22T10:23:00.192Z,974.9
2023-01-22T10:24:00.196Z,975.6
2023-01-22T10:25:00.185Z,973.2
2023-01-22T10:26:00.205Z,972.3
2023-01-22T10:27:00.206Z,972.5
2023-01-22T10:28:00.214Z,972.3
2023-01-22T10:29:00.198Z,973
2023-01-22T10:30:00.188Z,973.6
2023-01-22T10:31:00.274Z,973.2
2023-01-22T10:32:00.305Z,973
2023-01-22T10:33:00.203Z,972.7
2023-01-22T10:34:00.206Z,972.7
2023-01-22T10:35:00.218Z,973
2023-01-22T10:36:00.210Z,974.5
2023-01-22T10:37:00.191Z,974.7
2023-01-22T10:38:00.195Z,974.9
2023-01-22T10:39:00.213Z,974.3
2023-01-22T10:40:00.207Z,974
2023-01-22T10:41:00.226Z,973.8
2023-01-22T10:42:00.212Z,974
2023-01-22T10:43:00.206Z,974.5
2023-01-22T10:44:00.210Z,973.6
2023-01-22T10:45:00.209Z,973.6
2023-01-22T10:46:00.315Z,974.9
2023-01-22T10:47:00.201Z,975.4
2023-01-22T10:48:00.209Z,974
2023-01-22T10:49:00.215Z,974.9
2023-01-22T10:50:01.074Z,974.3
2023-01-22T10:51:00.287Z,974
2023-01-22T10:52:00.210Z,974.5
2023-01-22T10:53:00.207Z,974.5
2023-01-22T10:54:00.206Z,973.6
2023-01-22T10:55:00.226Z,974.3
2023-01-22T10:56:00.236Z,974
2023-01-22T10:57:00.215Z,974
2023-01-22T10:58:00.214Z,974
2023-01-22T10:59:00.236Z,974
2023-01-22T11:00:00.231Z,973.2
2023-01-22T11:01:00.282Z,973.6
2023-01-22T11:02:00.224Z,973.2
2023-01-22T11:03:00.221Z,972.7
2023-01-22T11:04:00.257Z,971.2
2023-01-22T11:05:00.235Z,971.9
2023-01-22T11:06:00.233Z,972.3
2023-01-22T11:07:00.221Z,972.1
2023-01-22T11:08:00.234Z,970.6
2023-01-22T11:09:00.240Z,972.1
2023-01-22T11:10:00.219Z,972.7
2023-01-22T11:11:00.249Z,972.5
2023-01-22T11:12:00.236Z,972.7
2023-01-22T11:13:00.240Z,972.3
2023-01-22T11:14:00.245Z,971.9
2023-01-22T11:15:00.233Z,971.9
2023-01-22T11:16:00.331Z,970.6
2023-01-22T11:17:00.233Z,971.4
2023-01-22T11:18:00.249Z,970.6
2023-01-22T11:19:00.239Z,971.4
2023-01-22T11:20:00.251Z,971.9
2023-01-22T11:21:00.261Z,972.7
2023-01-22T11:22:00.254Z,971.4
2023-01-22T11:23:00.275Z,971.9
2023-01-22T11:24:00.241Z,972.3
2023-01-22T11:25:00.258Z,972.3
2023-01-22T11:26:00.267Z,972.3
2023-01-22T11:27:00.239Z,972.3
2023-01-22T11:28:00.250Z,972.7
2023-01-22T11:29:00.248Z,972.7
2023-01-22T11:30:00.309Z,972.1
2023-01-22T11:31:00.336Z,971.9
2023-01-22T11:32:00.321Z,972.3
2023-01-22T11:33:00.269Z,972.1
2023-01-22T11:34:00.247Z,973.6
2023-01-22T11:35:00.269Z,972.7
2023-01-22T11:36:00.278Z,972.7
2023-01-22T11:37:00.263Z,973.2
2023-01-22T11:38:00.252Z,971
2023-01-22T11:39:00.266Z,971.4
2023-01-22T11:40:00.277Z,972.1
2023-01-22T11:41:00.286Z,973
2023-01-22T11:42:00.255Z,973.2
2023-01-22T11:43:00.257Z,972.5
2023-01-22T11:44:00.273Z,971
2023-01-22T11:45:00.257Z,971
2023-01-22T11:46:00.336Z,971.4
2023-01-22T11:47:00.259Z,970.6
2023-01-22T11:48:00.269Z,970.1
2023-01-22T11:49:00.272Z,970.6
2023-01-22T11:50:00.265Z,971.4
2023-01-22T11:51:00.307Z,972.3
2023-01-22T11:52:00.421Z,973
2023-01-22T11:53:00.271Z,972.3
2023-01-22T11:54:00.310Z,971.9
2023-01-22T11:55:00.282Z,972.1
2023-01-22T11:56:00.295Z,971.9
2023-01-22T11:57:00.326Z,972.7
2023-01-22T11:58:00.307Z,971.4
2023-01-22T11:59:00.289Z,971.2
2023-01-22T12:00:00.292Z,971.9
2023-01-22T12:01:00.301Z,971.9
2023-01-22T12:02:00.275Z,972.3
2023-01-22T12:03:00.333Z,972.5
2023-01-22T12:04:00.431Z,972.3
2023-01-22T12:05:00.280Z,973.2
2023-01-22T12:06:00.298Z,973
2023-01-22T12:07:00.296Z,973.2
2023-01-22T12:08:00.285Z,973
2023-01-22T12:09:00.287Z,971.9
2023-01-22T12:10:00.300Z,971.9
2023-01-22T12:11:00.309Z,972.7
2023-01-22T12:12:00.285Z,972.5
2023-01-22T12:13:00.325Z,972.3
2023-01-22T12:14:00.310Z,973.6
2023-01-22T12:15:00.324Z,974
2023-01-22T12:16:00.411Z,973.6
2023-01-22T12:17:00.297Z,973.6
2023-01-22T12:18:00.301Z,972.7
2023-01-22T12:19:00.299Z,974
2023-01-22T12:20:00.310Z,974.5
2023-01-22T12:21:00.314Z,974
2023-01-22T12:22:00.297Z,974.5
2023-01-22T12:23:00.296Z,973.8
2023-01-22T12:24:00.301Z,974
2023-01-22T12:25:00.333Z,973.6
2023-01-22T12:26:00.321Z,973.6
2023-01-22T12:27:00.299Z,974
2023-01-22T12:28:00.301Z,974
2023-01-22T12:29:00.320Z,973.6
2023-01-22T12:30:00.319Z,973.8
2023-01-22T12:31:00.434Z,973.4
2023-01-22T12:32:00.333Z,974
2023-01-22T12:33:00.309Z,974
2023-01-22T12:34:00.313Z,974
2023-01-22T12:35:00.328Z,973.2
2023-01-22T12:36:00.337Z,973.2
2023-01-22T12:37:00.318Z,972.5
2023-01-22T12:38:00.315Z,973.2
2023-01-22T12:39:00.320Z,973.2
2023-01-22T12:40:00.332Z,974
2023-01-22T12:41:00.319Z,973.6
2023-01-22T12:42:00.316Z,974
2023-01-22T12:43:00.317Z,973.4
2023-01-22T12:44:00.332Z,972.7
2023-01-22T12:45:00.335Z,972.7
2023-01-22T12:46:00.334Z,972.3
2023-01-22T12:47:00.317Z,972.7
2023-01-22T12:48:00.326Z,973.2
2023-01-22T12:49:00.338Z,972.5
2023-01-22T12:50:00.364Z,973.2
2023-01-22T12:51:00.389Z,973.6
2023-01-22T12:52:00.365Z,973.8
2023-01-22T12:53:00.333Z,973.6
2023-01-22T12:54:00.329Z,973.2
2023-01-22T12:55:00.347Z,973.6
2023-01-22T12:56:00.362Z,973.6
2023-01-22T12:57:00.347Z,972.7
2023-01-22T12:58:00.338Z,973
2023-01-22T12:59:00.355Z,971.9
2023-01-22T13:00:00.335Z,972.3
2023-01-22T13:01:00.395Z,973
2023-01-22T13:02:00.428Z,973.4